sensor_id;sensor_type;location;lat;lon;timestamp;P1;durP1;ratioP1;P2;durP2;ratioP2
3815;SDS011;1923;48.154;11.536;2024-01-11T00:02:05;62.33;;;20.15;;
3815;SDS011;1923;48.154;11.536;2024-01-11T00:04:34;51.60;;;19.17;;
3815;SDS011;1923;48.154;11.536;2024-01-11T00:07:02;54.30;;;19.05;;
3815;SDS011;1923;48.154;11.536;2024-01-11T00:09:30;52.95;;;19.20;;
3815;SDS011;1923;48.154;11.536;2024-01-11T00:11:59;50.75;;;18.55;;
3815;SDS011;1923;48.154;11.536;2024-01-11T00:14:27;54.88;;;18.17;;
3815;SDS011;1923;48.154;11.536;2024-01-11T00:16:55;52.65;;;18.45;;
3815;SDS011;1923;48.154;11.536;2024-01-11T00:19:23;64.68;;;19.52;;
3815;SDS011;1923;48.154;11.536;2024-01-11T00:21:51;63.67;;;18.75;;
3815;SDS011;1923;48.154;11.536;2024-01-11T00:24:19;55.30;;;18.25;;
3815;SDS011;1923;48.154;11.536;2024-01-11T00:26:48;51.40;;;17.25;;
3815;SDS011;1923;48.154;11.536;2024-01-11T00:29:17;58.38;;;18.77;;
3815;SDS011;1923;48.154;11.536;2024-01-11T00:31:45;48.38;;;17.35;;
3815;SDS011;1923;48.154;11.536;2024-01-11T00:34:13;54.13;;;18.40;;
3815;SDS011;1923;48.154;11.536;2024-01-11T00:36:41;64.22;;;18.20;;
3815;SDS011;1923;48.154;11.536;2024-01-11T00:39:09;57.60;;;20.13;;
3815;SDS011;1923;48.154;11.536;2024-01-11T00:41:38;48.40;;;18.20;;
3815;SDS011;1923;48.154;11.536;2024-01-11T00:44:06;49.58;;;18.70;;
3815;SDS011;1923;48.154;11.536;2024-01-11T00:46:35;50.95;;;19.75;;
3815;SDS011;1923;48.154;11.536;2024-01-11T00:49:04;54.22;;;19.00;;
3815;SDS011;1923;48.154;11.536;2024-01-11T00:51:33;63.60;;;19.48;;
3815;SDS011;1923;48.154;11.536;2024-01-11T00:54:01;63.58;;;19.40;;
3815;SDS011;1923;48.154;11.536;2024-01-11T00:56:30;57.72;;;19.08;;
3815;SDS011;1923;48.154;11.536;2024-01-11T00:58:59;59.53;;;19.65;;
3815;SDS011;1923;48.154;11.536;2024-01-11T01:01:27;52.97;;;16.90;;
3815;SDS011;1923;48.154;11.536;2024-01-11T01:03:56;48.00;;;17.40;;
3815;SDS011;1923;48.154;11.536;2024-01-11T01:06:25;52.03;;;19.52;;
3815;SDS011;1923;48.154;11.536;2024-01-11T01:08:53;58.42;;;18.50;;
3815;SDS011;1923;48.154;11.536;2024-01-11T01:11:22;50.97;;;17.33;;
3815;SDS011;1923;48.154;11.536;2024-01-11T01:13:50;50.65;;;16.05;;
3815;SDS011;1923;48.154;11.536;2024-01-11T01:16:18;40.92;;;14.52;;
3815;SDS011;1923;48.154;11.536;2024-01-11T01:18:47;52.00;;;16.15;;
3815;SDS011;1923;48.154;11.536;2024-01-11T01:21:16;45.85;;;14.90;;
3815;SDS011;1923;48.154;11.536;2024-01-11T01:23:45;45.28;;;15.35;;
3815;SDS011;1923;48.154;11.536;2024-01-11T01:31:44;51.35;;;17.70;;
3815;SDS011;1923;48.154;11.536;2024-01-11T01:34:13;67.55;;;19.90;;
3815;SDS011;1923;48.154;11.536;2024-01-11T01:36:43;59.83;;;20.05;;
3815;SDS011;1923;48.154;11.536;2024-01-11T01:39:11;58.90;;;19.63;;
3815;SDS011;1923;48.154;11.536;2024-01-11T01:41:39;55.85;;;19.08;;
3815;SDS011;1923;48.154;11.536;2024-01-11T01:44:07;60.60;;;20.00;;
3815;SDS011;1923;48.154;11.536;2024-01-11T01:46:35;56.00;;;18.25;;
3815;SDS011;1923;48.154;11.536;2024-01-11T01:49:03;58.00;;;19.55;;
3815;SDS011;1923;48.154;11.536;2024-01-11T01:51:32;53.45;;;18.35;;
3815;SDS011;1923;48.154;11.536;2024-01-11T01:54:02;59.13;;;19.55;;
3815;SDS011;1923;48.154;11.536;2024-01-11T01:56:31;56.20;;;17.63;;
3815;SDS011;1923;48.154;11.536;2024-01-11T01:59:00;55.85;;;19.77;;
3815;SDS011;1923;48.154;11.536;2024-01-11T02:01:30;47.00;;;16.63;;
3815;SDS011;1923;48.154;11.536;2024-01-11T02:03:59;67.15;;;18.60;;
3815;SDS011;1923;48.154;11.536;2024-01-11T02:06:27;55.72;;;19.23;;
3815;SDS011;1923;48.154;11.536;2024-01-11T02:08:59;57.75;;;18.42;;
3815;SDS011;1923;48.154;11.536;2024-01-11T02:11:30;56.88;;;18.80;;
3815;SDS011;1923;48.154;11.536;2024-01-11T02:13:58;56.22;;;19.17;;
3815;SDS011;1923;48.154;11.536;2024-01-11T02:16:27;53.67;;;18.45;;
3815;SDS011;1923;48.154;11.536;2024-01-11T02:18:55;58.03;;;17.73;;
3815;SDS011;1923;48.154;11.536;2024-01-11T02:21:23;67.47;;;18.67;;
3815;SDS011;1923;48.154;11.536;2024-01-11T02:24:01;54.13;;;21.52;;
3815;SDS011;1923;48.154;11.536;2024-01-11T02:26:33;65.55;;;18.13;;
3815;SDS011;1923;48.154;11.536;2024-01-11T02:29:02;67.25;;;21.15;;
3815;SDS011;1923;48.154;11.536;2024-01-11T02:31:30;64.00;;;19.25;;
3815;SDS011;1923;48.154;11.536;2024-01-11T02:33:58;57.40;;;20.52;;
3815;SDS011;1923;48.154;11.536;2024-01-11T02:36:26;57.83;;;17.67;;
3815;SDS011;1923;48.154;11.536;2024-01-11T02:38:54;60.60;;;17.67;;
3815;SDS011;1923;48.154;11.536;2024-01-11T02:41:24;48.05;;;17.48;;
3815;SDS011;1923;48.154;11.536;2024-01-11T02:43:54;47.40;;;16.52;;
3815;SDS011;1923;48.154;11.536;2024-01-11T02:46:22;51.72;;;17.38;;
3815;SDS011;1923;48.154;11.536;2024-01-11T02:48:50;42.50;;;14.65;;
3815;SDS011;1923;48.154;11.536;2024-01-11T02:51:19;49.40;;;16.08;;
3815;SDS011;1923;48.154;11.536;2024-01-11T02:53:47;46.55;;;16.35;;
3815;SDS011;1923;48.154;11.536;2024-01-11T02:56:15;43.33;;;15.27;;
3815;SDS011;1923;48.154;11.536;2024-01-11T02:58:44;40.83;;;15.10;;
3815;SDS011;1923;48.154;11.536;2024-01-11T03:01:12;42.50;;;15.25;;
3815;SDS011;1923;48.154;11.536;2024-01-11T03:03:40;43.90;;;15.02;;
3815;SDS011;1923;48.154;11.536;2024-01-11T03:06:08;30.63;;;13.48;;
3815;SDS011;1923;48.154;11.536;2024-01-11T03:08:36;40.80;;;14.43;;
3815;SDS011;1923;48.154;11.536;2024-01-11T03:11:05;47.42;;;14.90;;
3815;SDS011;1923;48.154;11.536;2024-01-11T03:13:33;48.08;;;15.32;;
3815;SDS011;1923;48.154;11.536;2024-01-11T03:16:03;45.85;;;14.63;;
3815;SDS011;1923;48.154;11.536;2024-01-11T03:18:32;44.72;;;14.98;;
3815;SDS011;1923;48.154;11.536;2024-01-11T03:21:00;40.80;;;14.25;;
3815;SDS011;1923;48.154;11.536;2024-01-11T03:23:28;42.58;;;15.60;;
3815;SDS011;1923;48.154;11.536;2024-01-11T03:25:57;48.33;;;16.40;;
3815;SDS011;1923;48.154;11.536;2024-01-11T03:28:25;43.50;;;14.93;;
3815;SDS011;1923;48.154;11.536;2024-01-11T03:30:53;39.10;;;15.43;;
3815;SDS011;1923;48.154;11.536;2024-01-11T03:33:22;47.10;;;16.67;;
3815;SDS011;1923;48.154;11.536;2024-01-11T03:35:50;44.95;;;14.73;;
3815;SDS011;1923;48.154;11.536;2024-01-11T03:38:18;39.00;;;14.88;;
3815;SDS011;1923;48.154;11.536;2024-01-11T03:40:46;56.47;;;15.98;;
3815;SDS011;1923;48.154;11.536;2024-01-11T03:43:16;42.55;;;14.77;;
3815;SDS011;1923;48.154;11.536;2024-01-11T03:45:44;39.90;;;17.10;;
3815;SDS011;1923;48.154;11.536;2024-01-11T03:48:12;45.28;;;15.35;;
3815;SDS011;1923;48.154;11.536;2024-01-11T03:50:42;41.67;;;16.85;;
3815;SDS011;1923;48.154;11.536;2024-01-11T03:53:10;43.28;;;16.90;;
3815;SDS011;1923;48.154;11.536;2024-01-11T03:55:38;38.35;;;15.40;;
3815;SDS011;1923;48.154;11.536;2024-01-11T03:58:06;40.40;;;16.45;;
3815;SDS011;1923;48.154;11.536;2024-01-11T04:00:34;40.80;;;18.20;;
3815;SDS011;1923;48.154;11.536;2024-01-11T04:03:02;48.15;;;18.08;;
3815;SDS011;1923;48.154;11.536;2024-01-11T04:05:31;44.33;;;15.45;;
3815;SDS011;1923;48.154;11.536;2024-01-11T04:08:00;46.20;;;15.85;;
3815;SDS011;1923;48.154;11.536;2024-01-11T04:10:31;46.05;;;15.80;;
3815;SDS011;1923;48.154;11.536;2024-01-11T04:12:59;38.25;;;15.75;;
3815;SDS011;1923;48.154;11.536;2024-01-11T04:15:27;36.10;;;15.13;;
3815;SDS011;1923;48.154;11.536;2024-01-11T04:17:55;43.10;;;16.75;;
3815;SDS011;1923;48.154;11.536;2024-01-11T04:20:24;49.88;;;17.73;;
3815;SDS011;1923;48.154;11.536;2024-01-11T04:22:52;49.60;;;17.30;;
3815;SDS011;1923;48.154;11.536;2024-01-11T04:25:21;38.10;;;15.02;;
3815;SDS011;1923;48.154;11.536;2024-01-11T04:27:49;44.92;;;18.00;;
3815;SDS011;1923;48.154;11.536;2024-01-11T04:30:17;50.70;;;16.60;;
3815;SDS011;1923;48.154;11.536;2024-01-11T04:32:45;47.30;;;17.10;;
3815;SDS011;1923;48.154;11.536;2024-01-11T04:35:13;53.78;;;18.63;;
3815;SDS011;1923;48.154;11.536;2024-01-11T04:37:41;47.78;;;18.05;;
3815;SDS011;1923;48.154;11.536;2024-01-11T04:40:10;40.88;;;16.30;;
3815;SDS011;1923;48.154;11.536;2024-01-11T04:42:39;49.47;;;18.88;;
3815;SDS011;1923;48.154;11.536;2024-01-11T04:45:07;46.28;;;17.85;;
3815;SDS011;1923;48.154;11.536;2024-01-11T04:47:36;48.30;;;17.65;;
3815;SDS011;1923;48.154;11.536;2024-01-11T04:50:04;43.97;;;18.17;;
3815;SDS011;1923;48.154;11.536;2024-01-11T04:52:33;39.03;;;16.95;;
3815;SDS011;1923;48.154;11.536;2024-01-11T04:55:01;47.28;;;18.45;;
3815;SDS011;1923;48.154;11.536;2024-01-11T04:57:30;43.92;;;17.10;;
3815;SDS011;1923;48.154;11.536;2024-01-11T04:59:59;51.75;;;19.20;;
3815;SDS011;1923;48.154;11.536;2024-01-11T05:02:29;49.15;;;18.92;;
3815;SDS011;1923;48.154;11.536;2024-01-11T05:04:57;62.72;;;21.58;;
3815;SDS011;1923;48.154;11.536;2024-01-11T05:07:26;60.85;;;22.38;;
3815;SDS011;1923;48.154;11.536;2024-01-11T05:09:54;57.58;;;21.58;;
3815;SDS011;1923;48.154;11.536;2024-01-11T05:12:22;54.85;;;21.73;;
3815;SDS011;1923;48.154;11.536;2024-01-11T05:14:50;62.22;;;21.45;;
3815;SDS011;1923;48.154;11.536;2024-01-11T05:17:20;53.55;;;19.75;;
3815;SDS011;1923;48.154;11.536;2024-01-11T05:19:48;61.28;;;19.98;;
3815;SDS011;1923;48.154;11.536;2024-01-11T05:22:16;51.00;;;16.65;;
3815;SDS011;1923;48.154;11.536;2024-01-11T05:24:45;44.83;;;19.35;;
3815;SDS011;1923;48.154;11.536;2024-01-11T05:27:13;45.88;;;20.27;;
3815;SDS011;1923;48.154;11.536;2024-01-11T05:29:42;39.85;;;17.48;;
3815;SDS011;1923;48.154;11.536;2024-01-11T05:32:13;50.40;;;17.83;;
3815;SDS011;1923;48.154;11.536;2024-01-11T05:34:43;38.88;;;15.88;;
3815;SDS011;1923;48.154;11.536;2024-01-11T05:37:11;43.30;;;17.48;;
3815;SDS011;1923;48.154;11.536;2024-01-11T05:39:39;42.80;;;16.92;;
3815;SDS011;1923;48.154;11.536;2024-01-11T05:42:07;47.40;;;19.45;;
3815;SDS011;1923;48.154;11.536;2024-01-11T05:44:35;41.60;;;16.90;;
3815;SDS011;1923;48.154;11.536;2024-01-11T05:47:03;53.40;;;19.35;;
3815;SDS011;1923;48.154;11.536;2024-01-11T05:49:31;46.35;;;19.75;;
3815;SDS011;1923;48.154;11.536;2024-01-11T05:52:01;47.58;;;18.15;;
3815;SDS011;1923;48.154;11.536;2024-01-11T05:54:29;45.70;;;17.70;;
3815;SDS011;1923;48.154;11.536;2024-01-11T05:56:57;57.38;;;21.23;;
3815;SDS011;1923;48.154;11.536;2024-01-11T05:59:26;49.75;;;19.55;;
3815;SDS011;1923;48.154;11.536;2024-01-11T06:01:54;54.65;;;19.77;;
3815;SDS011;1923;48.154;11.536;2024-01-11T06:04:26;49.58;;;20.27;;
3815;SDS011;1923;48.154;11.536;2024-01-11T06:06:54;56.28;;;19.40;;
3815;SDS011;1923;48.154;11.536;2024-01-11T06:09:23;55.88;;;20.42;;
3815;SDS011;1923;48.154;11.536;2024-01-11T06:11:52;54.20;;;19.35;;
3815;SDS011;1923;48.154;11.536;2024-01-11T06:14:20;53.45;;;20.65;;
3815;SDS011;1923;48.154;11.536;2024-01-11T06:16:48;63.60;;;21.52;;
3815;SDS011;1923;48.154;11.536;2024-01-11T06:19:16;57.97;;;21.17;;
3815;SDS011;1923;48.154;11.536;2024-01-11T06:21:44;53.70;;;21.13;;
3815;SDS011;1923;48.154;11.536;2024-01-11T06:24:13;54.92;;;19.80;;
3815;SDS011;1923;48.154;11.536;2024-01-11T06:26:42;53.88;;;19.92;;
3815;SDS011;1923;48.154;11.536;2024-01-11T06:29:10;56.13;;;20.85;;
3815;SDS011;1923;48.154;11.536;2024-01-11T06:31:38;45.92;;;18.90;;
3815;SDS011;1923;48.154;11.536;2024-01-11T06:34:06;57.55;;;24.40;;
3815;SDS011;1923;48.154;11.536;2024-01-11T06:36:34;59.55;;;20.38;;
3815;SDS011;1923;48.154;11.536;2024-01-11T06:39:02;50.83;;;18.55;;
3815;SDS011;1923;48.154;11.536;2024-01-11T06:41:31;58.22;;;19.92;;
3815;SDS011;1923;48.154;11.536;2024-01-11T06:44:01;59.00;;;22.50;;
3815;SDS011;1923;48.154;11.536;2024-01-11T06:46:29;69.15;;;21.90;;
3815;SDS011;1923;48.154;11.536;2024-01-11T06:48:57;56.33;;;20.67;;
3815;SDS011;1923;48.154;11.536;2024-01-11T06:51:26;59.05;;;20.23;;
3815;SDS011;1923;48.154;11.536;2024-01-11T06:53:53;52.65;;;17.67;;
3815;SDS011;1923;48.154;11.536;2024-01-11T06:56:22;59.20;;;21.10;;
3815;SDS011;1923;48.154;11.536;2024-01-11T06:58:50;66.53;;;19.80;;
3815;SDS011;1923;48.154;11.536;2024-01-11T07:01:20;51.97;;;20.38;;
3815;SDS011;1923;48.154;11.536;2024-01-11T07:03:48;47.53;;;18.95;;
3815;SDS011;1923;48.154;11.536;2024-01-11T07:06:17;54.08;;;19.15;;
3815;SDS011;1923;48.154;11.536;2024-01-11T07:08:45;49.60;;;19.90;;
3815;SDS011;1923;48.154;11.536;2024-01-11T07:11:13;44.78;;;16.73;;
3815;SDS011;1923;48.154;11.536;2024-01-11T07:13:42;44.80;;;16.13;;
3815;SDS011;1923;48.154;11.536;2024-01-11T07:16:10;44.33;;;16.52;;
3815;SDS011;1923;48.154;11.536;2024-01-11T07:18:43;49.35;;;16.65;;
3815;SDS011;1923;48.154;11.536;2024-01-11T07:21:11;41.67;;;17.40;;
3815;SDS011;1923;48.154;11.536;2024-01-11T07:23:39;45.30;;;17.52;;
3815;SDS011;1923;48.154;11.536;2024-01-11T07:26:08;46.50;;;16.63;;
3815;SDS011;1923;48.154;11.536;2024-01-11T07:28:36;40.92;;;15.45;;
3815;SDS011;1923;48.154;11.536;2024-01-11T07:31:04;42.90;;;16.73;;
3815;SDS011;1923;48.154;11.536;2024-01-11T07:33:32;42.53;;;14.90;;
3815;SDS011;1923;48.154;11.536;2024-01-11T07:36:02;35.78;;;14.52;;
3815;SDS011;1923;48.154;11.536;2024-01-11T07:38:31;32.00;;;15.27;;
3815;SDS011;1923;48.154;11.536;2024-01-11T07:40:59;38.70;;;14.73;;
3815;SDS011;1923;48.154;11.536;2024-01-11T07:43:27;38.17;;;14.70;;
3815;SDS011;1923;48.154;11.536;2024-01-11T07:46:10;38.83;;;14.93;;
3815;SDS011;1923;48.154;11.536;2024-01-11T07:48:38;41.78;;;16.58;;
3815;SDS011;1923;48.154;11.536;2024-01-11T07:51:07;37.13;;;15.30;;
3815;SDS011;1923;48.154;11.536;2024-01-11T07:53:35;37.35;;;16.00;;
3815;SDS011;1923;48.154;11.536;2024-01-11T07:56:04;39.63;;;15.68;;
3815;SDS011;1923;48.154;11.536;2024-01-11T07:58:32;37.30;;;15.18;;
3815;SDS011;1923;48.154;11.536;2024-01-11T08:01:02;35.72;;;15.82;;
3815;SDS011;1923;48.154;11.536;2024-01-11T08:03:30;39.08;;;15.20;;
3815;SDS011;1923;48.154;11.536;2024-01-11T08:06:01;38.33;;;14.77;;
3815;SDS011;1923;48.154;11.536;2024-01-11T08:08:31;42.75;;;16.98;;
3815;SDS011;1923;48.154;11.536;2024-01-11T08:10:59;46.03;;;16.10;;
3815;SDS011;1923;48.154;11.536;2024-01-11T08:13:27;43.63;;;16.80;;
3815;SDS011;1923;48.154;11.536;2024-01-11T08:15:57;48.17;;;17.65;;
3815;SDS011;1923;48.154;11.536;2024-01-11T08:18:25;42.20;;;16.40;;
3815;SDS011;1923;48.154;11.536;2024-01-11T08:20:54;42.05;;;16.95;;
3815;SDS011;1923;48.154;11.536;2024-01-11T08:23:22;33.53;;;14.57;;
3815;SDS011;1923;48.154;11.536;2024-01-11T08:25:51;38.58;;;15.55;;
3815;SDS011;1923;48.154;11.536;2024-01-11T08:28:21;41.05;;;15.50;;
3815;SDS011;1923;48.154;11.536;2024-01-11T08:30:48;40.75;;;16.95;;
3815;SDS011;1923;48.154;11.536;2024-01-11T08:33:16;44.13;;;16.20;;
3815;SDS011;1923;48.154;11.536;2024-01-11T08:35:45;39.10;;;16.90;;
3815;SDS011;1923;48.154;11.536;2024-01-11T08:38:13;33.60;;;16.77;;
3815;SDS011;1923;48.154;11.536;2024-01-11T08:40:41;41.70;;;16.73;;
3815;SDS011;1923;48.154;11.536;2024-01-11T08:43:12;40.30;;;17.60;;
3815;SDS011;1923;48.154;11.536;2024-01-11T08:45:40;42.00;;;18.35;;
3815;SDS011;1923;48.154;11.536;2024-01-11T08:48:09;40.67;;;17.13;;
3815;SDS011;1923;48.154;11.536;2024-01-11T08:50:38;38.72;;;16.80;;
3815;SDS011;1923;48.154;11.536;2024-01-11T08:53:06;36.65;;;15.95;;
3815;SDS011;1923;48.154;11.536;2024-01-11T08:55:34;46.35;;;15.77;;
3815;SDS011;1923;48.154;11.536;2024-01-11T08:58:03;37.72;;;18.48;;
3815;SDS011;1923;48.154;11.536;2024-01-11T09:00:32;42.20;;;17.13;;
3815;SDS011;1923;48.154;11.536;2024-01-11T09:03:00;42.90;;;17.65;;
3815;SDS011;1923;48.154;11.536;2024-01-11T09:05:28;56.63;;;22.02;;
3815;SDS011;1923;48.154;11.536;2024-01-11T09:07:57;70.15;;;23.67;;
3815;SDS011;1923;48.154;11.536;2024-01-11T09:10:25;65.10;;;25.00;;
3815;SDS011;1923;48.154;11.536;2024-01-11T09:12:53;62.50;;;24.27;;
3815;SDS011;1923;48.154;11.536;2024-01-11T09:15:21;67.18;;;25.58;;
3815;SDS011;1923;48.154;11.536;2024-01-11T09:17:50;67.97;;;26.23;;
3815;SDS011;1923;48.154;11.536;2024-01-11T09:20:18;68.03;;;24.42;;
3815;SDS011;1923;48.154;11.536;2024-01-11T09:22:46;67.70;;;24.60;;
3815;SDS011;1923;48.154;11.536;2024-01-11T09:25:15;60.60;;;24.02;;
3815;SDS011;1923;48.154;11.536;2024-01-11T09:27:43;63.85;;;25.05;;
3815;SDS011;1923;48.154;11.536;2024-01-11T09:30:12;65.63;;;24.13;;
3815;SDS011;1923;48.154;11.536;2024-01-11T09:32:40;57.75;;;22.40;;
3815;SDS011;1923;48.154;11.536;2024-01-11T09:35:10;62.58;;;23.83;;
3815;SDS011;1923;48.154;11.536;2024-01-11T09:37:41;63.40;;;23.13;;
3815;SDS011;1923;48.154;11.536;2024-01-11T09:40:12;68.28;;;22.92;;
3815;SDS011;1923;48.154;11.536;2024-01-11T09:42:40;61.83;;;23.05;;
3815;SDS011;1923;48.154;11.536;2024-01-11T09:45:09;60.15;;;24.00;;
3815;SDS011;1923;48.154;11.536;2024-01-11T09:47:40;68.72;;;23.40;;
3815;SDS011;1923;48.154;11.536;2024-01-11T09:50:10;63.55;;;24.75;;
3815;SDS011;1923;48.154;11.536;2024-01-11T09:52:45;55.85;;;23.25;;
3815;SDS011;1923;48.154;11.536;2024-01-11T09:55:14;60.15;;;22.38;;
3815;SDS011;1923;48.154;11.536;2024-01-11T09:57:44;64.43;;;24.83;;
3815;SDS011;1923;48.154;11.536;2024-01-11T10:00:16;67.82;;;23.95;;
3815;SDS011;1923;48.154;11.536;2024-01-11T10:02:45;62.63;;;23.80;;
3815;SDS011;1923;48.154;11.536;2024-01-11T10:05:15;57.40;;;24.08;;
3815;SDS011;1923;48.154;11.536;2024-01-11T10:07:45;65.18;;;24.17;;
3815;SDS011;1923;48.154;11.536;2024-01-11T10:10:14;61.40;;;24.40;;
3815;SDS011;1923;48.154;11.536;2024-01-11T10:12:42;62.92;;;24.95;;
3815;SDS011;1923;48.154;11.536;2024-01-11T10:15:10;66.13;;;24.13;;
3815;SDS011;1923;48.154;11.536;2024-01-11T10:17:41;56.75;;;22.27;;
3815;SDS011;1923;48.154;11.536;2024-01-11T10:20:11;55.78;;;22.63;;
3815;SDS011;1923;48.154;11.536;2024-01-11T10:22:41;59.35;;;24.58;;
3815;SDS011;1923;48.154;11.536;2024-01-11T10:25:10;59.85;;;22.48;;
3815;SDS011;1923;48.154;11.536;2024-01-11T10:27:39;60.58;;;24.63;;
3815;SDS011;1923;48.154;11.536;2024-01-11T10:30:10;59.23;;;23.50;;
3815;SDS011;1923;48.154;11.536;2024-01-11T10:32:40;66.28;;;24.02;;
3815;SDS011;1923;48.154;11.536;2024-01-11T10:35:08;73.18;;;27.17;;
3815;SDS011;1923;48.154;11.536;2024-01-11T10:37:37;55.97;;;24.20;;
3815;SDS011;1923;48.154;11.536;2024-01-11T10:40:08;56.07;;;24.20;;
3815;SDS011;1923;48.154;11.536;2024-01-11T10:42:39;57.80;;;25.10;;
3815;SDS011;1923;48.154;11.536;2024-01-11T10:45:10;59.85;;;24.25;;
3815;SDS011;1923;48.154;11.536;2024-01-11T10:47:47;60.30;;;24.35;;
3815;SDS011;1923;48.154;11.536;2024-01-11T10:50:19;58.03;;;24.73;;
3815;SDS011;1923;48.154;11.536;2024-01-11T10:53:01;63.60;;;24.00;;
3815;SDS011;1923;48.154;11.536;2024-01-11T10:55:35;62.40;;;25.50;;
3815;SDS011;1923;48.154;11.536;2024-01-11T10:58:04;61.35;;;22.73;;
3815;SDS011;1923;48.154;11.536;2024-01-11T11:00:34;61.20;;;23.75;;
3815;SDS011;1923;48.154;11.536;2024-01-11T11:03:03;68.65;;;25.17;;
3815;SDS011;1923;48.154;11.536;2024-01-11T11:05:34;67.57;;;26.27;;
3815;SDS011;1923;48.154;11.536;2024-01-11T11:08:03;62.97;;;23.08;;
3815;SDS011;1923;48.154;11.536;2024-01-11T11:10:33;62.70;;;23.80;;
3815;SDS011;1923;48.154;11.536;2024-01-11T11:13:04;59.70;;;24.63;;
3815;SDS011;1923;48.154;11.536;2024-01-11T11:15:33;62.90;;;25.38;;
3815;SDS011;1923;48.154;11.536;2024-01-11T11:18:03;55.20;;;25.02;;
3815;SDS011;1923;48.154;11.536;2024-01-11T11:23:10;60.17;;;24.10;;
3815;SDS011;1923;48.154;11.536;2024-01-11T11:25:41;66.93;;;26.27;;
3815;SDS011;1923;48.154;11.536;2024-01-11T11:28:09;62.77;;;25.93;;
3815;SDS011;1923;48.154;11.536;2024-01-11T11:30:40;58.00;;;23.70;;
3815;SDS011;1923;48.154;11.536;2024-01-11T11:33:09;61.43;;;23.87;;
3815;SDS011;1923;48.154;11.536;2024-01-11T11:35:38;61.00;;;22.60;;
3815;SDS011;1923;48.154;11.536;2024-01-11T11:38:06;64.20;;;25.13;;
3815;SDS011;1923;48.154;11.536;2024-01-11T11:40:36;60.27;;;23.97;;
3815;SDS011;1923;48.154;11.536;2024-01-11T11:43:08;63.53;;;23.97;;
3815;SDS011;1923;48.154;11.536;2024-01-11T11:45:37;61.87;;;24.80;;
3815;SDS011;1923;48.154;11.536;2024-01-11T11:51:07;57.30;;;23.10;;
3815;SDS011;1923;48.154;11.536;2024-01-11T11:53:36;56.07;;;22.57;;
3815;SDS011;1923;48.154;11.536;2024-01-11T11:56:05;61.15;;;22.17;;
3815;SDS011;1923;48.154;11.536;2024-01-11T11:58:37;60.77;;;23.67;;
3815;SDS011;1923;48.154;11.536;2024-01-11T12:01:06;53.70;;;21.77;;
3815;SDS011;1923;48.154;11.536;2024-01-11T12:03:35;60.88;;;22.45;;
3815;SDS011;1923;48.154;11.536;2024-01-11T12:06:05;55.10;;;21.87;;
3815;SDS011;1923;48.154;11.536;2024-01-11T12:08:35;49.63;;;21.83;;
3815;SDS011;1923;48.154;11.536;2024-01-11T12:11:03;56.00;;;23.10;;
3815;SDS011;1923;48.154;11.536;2024-01-11T12:13:32;51.93;;;24.00;;
3815;SDS011;1923;48.154;11.536;2024-01-11T12:16:03;57.47;;;23.40;;
3815;SDS011;1923;48.154;11.536;2024-01-11T12:18:32;63.07;;;22.93;;
3815;SDS011;1923;48.154;11.536;2024-01-11T12:21:00;69.10;;;27.33;;
3815;SDS011;1923;48.154;11.536;2024-01-11T12:23:28;67.20;;;24.47;;
3815;SDS011;1923;48.154;11.536;2024-01-11T12:25:57;60.33;;;24.10;;
3815;SDS011;1923;48.154;11.536;2024-01-11T12:28:26;61.97;;;24.67;;
3815;SDS011;1923;48.154;11.536;2024-01-11T12:30:54;63.17;;;24.47;;
3815;SDS011;1923;48.154;11.536;2024-01-11T12:33:23;67.00;;;25.85;;
3815;SDS011;1923;48.154;11.536;2024-01-11T12:35:54;60.83;;;24.83;;
3815;SDS011;1923;48.154;11.536;2024-01-11T12:38:22;72.37;;;25.70;;
3815;SDS011;1923;48.154;11.536;2024-01-11T12:40:50;60.97;;;24.40;;
3815;SDS011;1923;48.154;11.536;2024-01-11T12:43:18;66.47;;;24.37;;
3815;SDS011;1923;48.154;11.536;2024-01-11T12:45:46;62.50;;;24.67;;
3815;SDS011;1923;48.154;11.536;2024-01-11T12:48:15;67.23;;;25.20;;
3815;SDS011;1923;48.154;11.536;2024-01-11T12:50:46;68.07;;;24.70;;
3815;SDS011;1923;48.154;11.536;2024-01-11T12:53:15;57.63;;;24.03;;
3815;SDS011;1923;48.154;11.536;2024-01-11T12:55:45;59.50;;;24.10;;
3815;SDS011;1923;48.154;11.536;2024-01-11T12:58:23;65.57;;;25.13;;
3815;SDS011;1923;48.154;11.536;2024-01-11T13:00:53;52.07;;;23.20;;
3815;SDS011;1923;48.154;11.536;2024-01-11T13:03:21;70.93;;;24.93;;
3815;SDS011;1923;48.154;11.536;2024-01-11T13:05:52;56.13;;;24.77;;
3815;SDS011;1923;48.154;11.536;2024-01-11T13:08:20;59.43;;;24.60;;
3815;SDS011;1923;48.154;11.536;2024-01-11T13:10:48;58.23;;;24.17;;
3815;SDS011;1923;48.154;11.536;2024-01-11T13:13:16;66.53;;;27.35;;
3815;SDS011;1923;48.154;11.536;2024-01-11T13:15:44;64.07;;;25.07;;
3815;SDS011;1923;48.154;11.536;2024-01-11T13:18:12;60.50;;;25.43;;
3815;SDS011;1923;48.154;11.536;2024-01-11T13:20:41;73.53;;;28.77;;
3815;SDS011;1923;48.154;11.536;2024-01-11T13:23:14;63.00;;;25.77;;
3815;SDS011;1923;48.154;11.536;2024-01-11T13:25:44;64.70;;;25.70;;
3815;SDS011;1923;48.154;11.536;2024-01-11T13:28:13;56.37;;;26.57;;
3815;SDS011;1923;48.154;11.536;2024-01-11T13:30:42;67.70;;;26.60;;
3815;SDS011;1923;48.154;11.536;2024-01-11T13:33:11;66.47;;;25.50;;
3815;SDS011;1923;48.154;11.536;2024-01-11T13:35:40;72.33;;;25.43;;
3815;SDS011;1923;48.154;11.536;2024-01-11T13:38:10;66.23;;;26.83;;
3815;SDS011;1923;48.154;11.536;2024-01-11T13:40:40;59.53;;;26.47;;
3815;SDS011;1923;48.154;11.536;2024-01-11T13:43:09;72.00;;;27.00;;
3815;SDS011;1923;48.154;11.536;2024-01-11T13:45:37;66.40;;;25.67;;
3815;SDS011;1923;48.154;11.536;2024-01-11T13:48:05;63.67;;;27.05;;
3815;SDS011;1923;48.154;11.536;2024-01-11T13:50:34;72.93;;;27.97;;
3815;SDS011;1923;48.154;11.536;2024-01-11T13:53:02;68.00;;;26.90;;
3815;SDS011;1923;48.154;11.536;2024-01-11T13:55:31;63.77;;;25.17;;
3815;SDS011;1923;48.154;11.536;2024-01-11T13:58:07;62.88;;;26.20;;
3815;SDS011;1923;48.154;11.536;2024-01-11T14:00:35;65.63;;;26.42;;
3815;SDS011;1923;48.154;11.536;2024-01-11T14:03:04;66.30;;;25.23;;
3815;SDS011;1923;48.154;11.536;2024-01-11T14:05:32;68.10;;;28.00;;
3815;SDS011;1923;48.154;11.536;2024-01-11T14:08:01;66.10;;;26.50;;
3815;SDS011;1923;48.154;11.536;2024-01-11T14:10:32;72.80;;;27.63;;
3815;SDS011;1923;48.154;11.536;2024-01-11T14:13:01;74.10;;;28.97;;
3815;SDS011;1923;48.154;11.536;2024-01-11T14:15:31;68.67;;;28.17;;
3815;SDS011;1923;48.154;11.536;2024-01-11T14:17:59;64.73;;;26.70;;
3815;SDS011;1923;48.154;11.536;2024-01-11T14:20:28;95.85;;;27.30;;
3815;SDS011;1923;48.154;11.536;2024-01-11T14:22:57;72.47;;;27.83;;
3815;SDS011;1923;48.154;11.536;2024-01-11T14:25:25;66.00;;;28.63;;
3815;SDS011;1923;48.154;11.536;2024-01-11T14:27:53;71.50;;;28.43;;
3815;SDS011;1923;48.154;11.536;2024-01-11T14:30:22;74.97;;;28.57;;
3815;SDS011;1923;48.154;11.536;2024-01-11T14:32:52;71.03;;;27.80;;
3815;SDS011;1923;48.154;11.536;2024-01-11T14:35:20;67.23;;;27.33;;
3815;SDS011;1923;48.154;11.536;2024-01-11T14:37:49;74.60;;;29.27;;
3815;SDS011;1923;48.154;11.536;2024-01-11T14:40:19;75.73;;;27.37;;
3815;SDS011;1923;48.154;11.536;2024-01-11T14:42:50;77.35;;;30.40;;
3815;SDS011;1923;48.154;11.536;2024-01-11T14:45:18;76.38;;;28.90;;
3815;SDS011;1923;48.154;11.536;2024-01-11T14:47:46;80.82;;;29.08;;
3815;SDS011;1923;48.154;11.536;2024-01-11T14:50:15;80.50;;;31.83;;
3815;SDS011;1923;48.154;11.536;2024-01-11T14:52:43;76.67;;;27.83;;
3815;SDS011;1923;48.154;11.536;2024-01-11T14:55:12;59.20;;;25.93;;